sensor_id;sensor_type;location;lat;lon;timestamp;temperature;humidity
21849;DHT22;11089;49.852;19.700;2023-03-03T00:01:19;-0.60;99.90
21849;DHT22;11089;49.852;19.700;2023-03-03T00:04:21;-0.60;99.90
21849;DHT22;11089;49.852;19.700;2023-03-03T00:07:21;-0.60;1.00
21849;DHT22;11089;49.852;19.700;2023-03-03T00:10:22;-0.60;1.00
21849;DHT22;11089;49.852;19.700;2023-03-03T00:13:25;-0.70;1.00
21849;DHT22;11089;49.852;19.700;2023-03-03T00:16:37;-0.70;99.90
21849;DHT22;11089;49.852;19.700;2023-03-03T00:19:38;-0.90;99.90
21849;DHT22;11089;49.852;19.700;2023-03-03T00:22:40;-0.90;1.00
21849;DHT22;11089;49.852;19.700;2023-03-03T00:25:44;-1.00;99.90
21849;DHT22;11089;49.852;19.700;2023-03-03T00:28:50;-1.10;1.00
21849;DHT22;11089;49.852;19.700;2023-03-03T00:31:51;-1.10;1.00
21849;DHT22;11089;49.852;19.700;2023-03-03T00:34:55;-1.10;1.00
21849;DHT22;11089;49.852;19.700;2023-03-03T00:37:58;-1.20;1.00
21849;DHT22;11089;49.852;19.700;2023-03-03T00:41:00;-1.20;1.00
21849;DHT22;11089;49.852;19.700;2023-03-03T00:44:30;-1.20;1.00
21849;DHT22;11089;49.852;19.700;2023-03-03T00:47:36;-1.20;1.00
21849;DHT22;11089;49.852;19.700;2023-03-03T00:50:40;-1.10;1.00
21849;DHT22;11089;49.852;19.700;2023-03-03T00:53:43;-1.00;1.00
21849;DHT22;11089;49.852;19.700;2023-03-03T00:56:44;-1.00;1.00
21849;DHT22;11089;49.852;19.700;2023-03-03T00:59:45;-1.00;99.90
21849;DHT22;11089;49.852;19.700;2023-03-03T01:02:46;-1.10;99.90
21849;DHT22;11089;49.852;19.700;2023-03-03T01:05:48;-1.10;1.00
21849;DHT22;11089;49.852;19.700;2023-03-03T01:08:49;-1.00;1.00
21849;DHT22;11089;49.852;19.700;2023-03-03T01:11:51;-1.00;1.00
21849;DHT22;11089;49.852;19.700;2023-03-03T01:14:52;-1.00;1.00
21849;DHT22;11089;49.852;19.700;2023-03-03T01:17:55;-1.10;99.90
21849;DHT22;11089;49.852;19.700;2023-03-03T01:20:56;-1.10;99.90
21849;DHT22;11089;49.852;19.700;2023-03-03T01:23:57;-1.20;1.00
21849;DHT22;11089;49.852;19.700;2023-03-03T01:26:58;-1.30;1.00
21849;DHT22;11089;49.852;19.700;2023-03-03T01:29:59;-1.20;1.00
21849;DHT22;11089;49.852;19.700;2023-03-03T01:33:00;-1.20;1.00
21849;DHT22;11089;49.852;19.700;2023-03-03T01:36:01;-1.20;1.00
21849;DHT22;11089;49.852;19.700;2023-03-03T01:39:03;-1.30;99.90
21849;DHT22;11089;49.852;19.700;2023-03-03T01:42:04;-1.30;1.00
21849;DHT22;11089;49.852;19.700;2023-03-03T01:45:19;-1.40;99.90
21849;DHT22;11089;49.852;19.700;2023-03-03T01:51:37;-1.50;99.90
21849;DHT22;11089;49.852;19.700;2023-03-03T01:54:42;-1.60;99.90
21849;DHT22;11089;49.852;19.700;2023-03-03T01:57:51;-1.60;1.00
21849;DHT22;11089;49.852;19.700;2023-03-03T02:01:00;-1.60;1.00
21849;DHT22;11089;49.852;19.700;2023-03-03T02:04:02;-1.50;99.90
21849;DHT22;11089;49.852;19.700;2023-03-03T02:07:08;-1.60;1.00
21849;DHT22;11089;49.852;19.700;2023-03-03T02:10:17;-1.50;19.50
21849;DHT22;11089;49.852;19.700;2023-03-03T02:13:19;-1.50;99.90
21849;DHT22;11089;49.852;19.700;2023-03-03T02:16:20;-1.40;99.90
21849;DHT22;11089;49.852;19.700;2023-03-03T02:19:34;-1.50;99.90
21849;DHT22;11089;49.852;19.700;2023-03-03T02:22:46;-1.50;99.90
21849;DHT22;11089;49.852;19.700;2023-03-03T02:28:57;-1.30;99.90
21849;DHT22;11089;49.852;19.700;2023-03-03T02:31:58;-1.40;99.90
21849;DHT22;11089;49.852;19.700;2023-03-03T02:34:59;-1.40;1.00
21849;DHT22;11089;49.852;19.700;2023-03-03T02:41:46;-1.50;1.00
21849;DHT22;11089;49.852;19.700;2023-03-03T02:44:49;-1.60;1.00
21849;DHT22;11089;49.852;19.700;2023-03-03T02:47:50;-1.80;99.90
21849;DHT22;11089;49.852;19.700;2023-03-03T02:50:51;-1.80;99.90
21849;DHT22;11089;49.852;19.700;2023-03-03T02:53:52;-1.80;99.90
21849;DHT22;11089;49.852;19.700;2023-03-03T02:56:53;-1.80;1.00
21849;DHT22;11089;49.852;19.700;2023-03-03T02:59:54;-1.80;99.90
21849;DHT22;11089;49.852;19.700;2023-03-03T03:02:55;-1.80;1.00
21849;DHT22;11089;49.852;19.700;2023-03-03T03:05:55;-1.80;1.00
21849;DHT22;11089;49.852;19.700;2023-03-03T03:08:56;-1.90;1.00
21849;DHT22;11089;49.852;19.700;2023-03-03T03:11:57;-1.90;99.90
21849;DHT22;11089;49.852;19.700;2023-03-03T03:15:02;-1.80;1.00
21849;DHT22;11089;49.852;19.700;2023-03-03T03:18:03;-1.80;1.00
21849;DHT22;11089;49.852;19.700;2023-03-03T03:21:09;-1.80;99.90
21849;DHT22;11089;49.852;19.700;2023-03-03T03:24:10;-1.80;99.90
21849;DHT22;11089;49.852;19.700;2023-03-03T03:27:11;-1.70;1.00
21849;DHT22;11089;49.852;19.700;2023-03-03T03:30:12;-1.70;1.00
21849;DHT22;11089;49.852;19.700;2023-03-03T03:33:14;-1.70;99.90
21849;DHT22;11089;49.852;19.700;2023-03-03T03:36:16;-1.70;96.90
21849;DHT22;11089;49.852;19.700;2023-03-03T03:39:17;-1.70;1.00
21849;DHT22;11089;49.852;19.700;2023-03-03T03:42:18;-1.60;1.00
21849;DHT22;11089;49.852;19.700;2023-03-03T03:45:19;-1.70;1.00
21849;DHT22;11089;49.852;19.700;2023-03-03T03:48:20;-1.80;99.90
21849;DHT22;11089;49.852;19.700;2023-03-03T03:51:21;-1.70;1.00
21849;DHT22;11089;49.852;19.700;2023-03-03T03:54:22;-1.70;99.90
21849;DHT22;11089;49.852;19.700;2023-03-03T03:57:23;-1.60;99.90
21849;DHT22;11089;49.852;19.700;2023-03-03T04:00:25;-1.70;1.00
21849;DHT22;11089;49.852;19.700;2023-03-03T04:03:26;-1.70;1.00
21849;DHT22;11089;49.852;19.700;2023-03-03T04:06:27;-1.60;97.00
21849;DHT22;11089;49.852;19.700;2023-03-03T04:09:28;-1.60;99.90
21849;DHT22;11089;49.852;19.700;2023-03-03T04:12:29;-1.60;1.00
21849;DHT22;11089;49.852;19.700;2023-03-03T04:15:35;-1.60;1.00
21849;DHT22;11089;49.852;19.700;2023-03-03T04:18:36;-1.70;99.90
21849;DHT22;11089;49.852;19.700;2023-03-03T04:21:37;-1.70;1.00
21849;DHT22;11089;49.852;19.700;2023-03-03T04:24:39;-1.70;1.00
21849;DHT22;11089;49.852;19.700;2023-03-03T04:27:40;-1.60;1.00
21849;DHT22;11089;49.852;19.700;2023-03-03T04:30:42;-1.70;99.90
21849;DHT22;11089;49.852;19.700;2023-03-03T04:33:43;-1.70;1.00
21849;DHT22;11089;49.852;19.700;2023-03-03T04:36:44;-1.60;99.90
21849;DHT22;11089;49.852;19.700;2023-03-03T04:39:45;-1.60;99.90
21849;DHT22;11089;49.852;19.700;2023-03-03T04:42:46;-1.70;1.00
21849;DHT22;11089;49.852;19.700;2023-03-03T04:45:47;-1.70;99.90
21849;DHT22;11089;49.852;19.700;2023-03-03T04:48:48;-1.70;99.90
21849;DHT22;11089;49.852;19.700;2023-03-03T04:51:49;-1.70;1.00
21849;DHT22;11089;49.852;19.700;2023-03-03T04:54:50;-1.80;1.00
21849;DHT22;11089;49.852;19.700;2023-03-03T04:57:51;-1.70;1.00
21849;DHT22;11089;49.852;19.700;2023-03-03T05:00:53;-1.70;99.90
21849;DHT22;11089;49.852;19.700;2023-03-03T05:03:54;-1.80;1.00
21849;DHT22;11089;49.852;19.700;2023-03-03T05:06:55;-1.90;1.00
21849;DHT22;11089;49.852;19.700;2023-03-03T05:09:57;-1.90;1.00
21849;DHT22;11089;49.852;19.700;2023-03-03T05:12:58;-1.90;99.00
21849;DHT22;11089;49.852;19.700;2023-03-03T05:15:59;-1.90;99.90
21849;DHT22;11089;49.852;19.700;2023-03-03T05:19:00;-1.80;99.90
21849;DHT22;11089;49.852;19.700;2023-03-03T05:22:01;-1.90;99.90
21849;DHT22;11089;49.852;19.700;2023-03-03T05:25:02;-1.90;1.00
21849;DHT22;11089;49.852;19.700;2023-03-03T05:28:03;-1.90;1.00
21849;DHT22;11089;49.852;19.700;2023-03-03T05:31:04;-1.90;1.00
21849;DHT22;11089;49.852;19.700;2023-03-03T05:34:05;-1.90;1.00
21849;DHT22;11089;49.852;19.700;2023-03-03T05:37:06;-2.00;99.90
21849;DHT22;11089;49.852;19.700;2023-03-03T05:40:08;-2.00;99.90
21849;DHT22;11089;49.852;19.700;2023-03-03T05:43:09;-2.00;99.90
21849;DHT22;11089;49.852;19.700;2023-03-03T05:46:10;-1.90;99.90
21849;DHT22;11089;49.852;19.700;2023-03-03T05:49:11;-2.00;1.00
21849;DHT22;11089;49.852;19.700;2023-03-03T05:52:12;-1.90;99.90
21849;DHT22;11089;49.852;19.700;2023-03-03T05:55:14;-1.80;99.90
21849;DHT22;11089;49.852;19.700;2023-03-03T05:58:15;-1.80;1.00
21849;DHT22;11089;49.852;19.700;2023-03-03T06:01:16;-1.60;1.00
21849;DHT22;11089;49.852;19.700;2023-03-03T06:04:16;-1.60;99.90
21849;DHT22;11089;49.852;19.700;2023-03-03T06:07:17;-1.50;1.00
21849;DHT22;11089;49.852;19.700;2023-03-03T06:10:18;-1.50;1.00
21849;DHT22;11089;49.852;19.700;2023-03-03T06:13:19;-1.40;99.90
21849;DHT22;11089;49.852;19.700;2023-03-03T06:16:21;-1.40;99.90
21849;DHT22;11089;49.852;19.700;2023-03-03T06:19:22;-1.30;99.90
21849;DHT22;11089;49.852;19.700;2023-03-03T06:22:23;-1.20;99.90
21849;DHT22;11089;49.852;19.700;2023-03-03T06:25:23;-1.20;99.90
21849;DHT22;11089;49.852;19.700;2023-03-03T06:28:24;-1.10;1.00
21849;DHT22;11089;49.852;19.700;2023-03-03T06:31:26;-1.10;99.90
21849;DHT22;11089;49.852;19.700;2023-03-03T06:34:27;-1.10;1.00
21849;DHT22;11089;49.852;19.700;2023-03-03T06:37:28;-1.10;1.00
21849;DHT22;11089;49.852;19.700;2023-03-03T06:40:29;-1.00;1.00
21849;DHT22;11089;49.852;19.700;2023-03-03T06:43:30;-0.90;1.00
21849;DHT22;11089;49.852;19.700;2023-03-03T06:46:31;-0.80;99.90
21849;DHT22;11089;49.852;19.700;2023-03-03T06:49:32;-0.70;1.00
21849;DHT22;11089;49.852;19.700;2023-03-03T06:52:33;-0.60;99.90
21849;DHT22;11089;49.852;19.700;2023-03-03T06:55:34;-0.50;1.00
21849;DHT22;11089;49.852;19.700;2023-03-03T06:58:35;-0.50;1.00
21849;DHT22;11089;49.852;19.700;2023-03-03T07:01:36;-0.40;99.90
21849;DHT22;11089;49.852;19.700;2023-03-03T07:04:37;-0.30;1.00
21849;DHT22;11089;49.852;19.700;2023-03-03T07:07:39;-0.20;1.00
21849;DHT22;11089;49.852;19.700;2023-03-03T07:10:40;-0.20;1.00
21849;DHT22;11089;49.852;19.700;2023-03-03T07:13:47;-0.20;1.00
21849;DHT22;11089;49.852;19.700;2023-03-03T07:16:59;-0.20;99.90
21849;DHT22;11089;49.852;19.700;2023-03-03T07:20:54;0.00;1.00
21849;DHT22;11089;49.852;19.700;2023-03-03T07:23:39;0.10;1.00
21849;DHT22;11089;49.852;19.700;2023-03-03T07:26:43;0.10;1.00
21849;DHT22;11089;49.852;19.700;2023-03-03T07:29:48;0.10;1.00
21849;DHT22;11089;49.852;19.700;2023-03-03T07:32:52;0.30;1.00
21849;DHT22;11089;49.852;19.700;2023-03-03T07:35:57;0.20;1.00
21849;DHT22;11089;49.852;19.700;2023-03-03T07:39:10;0.20;1.00
21849;DHT22;11089;49.852;19.700;2023-03-03T07:45:35;0.30;1.00
21849;DHT22;11089;49.852;19.700;2023-03-03T07:48:38;0.50;73.00
21849;DHT22;11089;49.852;19.700;2023-03-03T07:51:41;0.50;1.00
21849;DHT22;11089;49.852;19.700;2023-03-03T07:54:44;0.60;99.90
21849;DHT22;11089;49.852;19.700;2023-03-03T07:57:46;0.60;99.90
21849;DHT22;11089;49.852;19.700;2023-03-03T08:01:34;0.70;1.00
21849;DHT22;11089;49.852;19.700;2023-03-03T08:04:38;1.00;99.90
21849;DHT22;11089;49.852;19.700;2023-03-03T08:07:40;1.60;99.90
21849;DHT22;11089;49.852;19.700;2023-03-03T08:10:53;2.00;1.00
21849;DHT22;11089;49.852;19.700;2023-03-03T08:13:55;2.30;1.00
21849;DHT22;11089;49.852;19.700;2023-03-03T08:16:57;2.70;1.00
21849;DHT22;11089;49.852;19.700;2023-03-03T08:19:58;2.90;99.90
21849;DHT22;11089;49.852;19.700;2023-03-03T08:22:59;3.10;1.00
21849;DHT22;11089;49.852;19.700;2023-03-03T08:26:00;3.30;99.90
21849;DHT22;11089;49.852;19.700;2023-03-03T08:29:01;3.30;1.00
21849;DHT22;11089;49.852;19.700;2023-03-03T08:32:02;3.50;1.00
21849;DHT22;11089;49.852;19.700;2023-03-03T08:35:03;3.50;99.90
21849;DHT22;11089;49.852;19.700;2023-03-03T08:38:05;3.50;99.90
21849;DHT22;11089;49.852;19.700;2023-03-03T08:41:07;3.60;78.10
21849;DHT22;11089;49.852;19.700;2023-03-03T08:44:08;3.80;99.90
21849;DHT22;11089;49.852;19.700;2023-03-03T08:47:09;3.90;1.00
21849;DHT22;11089;49.852;19.700;2023-03-03T08:50:11;3.90;1.00
21849;DHT22;11089;49.852;19.700;2023-03-03T08:53:14;4.10;1.00
21849;DHT22;11089;49.852;19.700;2023-03-03T08:56:15;4.20;1.00
21849;DHT22;11089;49.852;19.700;2023-03-03T08:59:17;4.10;1.00
21849;DHT22;11089;49.852;19.700;2023-03-03T09:02:19;4.00;1.00
21849;DHT22;11089;49.852;19.700;2023-03-03T09:05:21;3.90;12.40
21849;DHT22;11089;49.852;19.700;2023-03-03T09:08:22;3.80;1.00
21849;DHT22;11089;49.852;19.700;2023-03-03T09:11:26;4.10;1.00
21849;DHT22;11089;49.852;19.700;2023-03-03T09:14:28;4.10;1.00
21849;DHT22;11089;49.852;19.700;2023-03-03T09:17:33;4.00;1.00
21849;DHT22;11089;49.852;19.700;2023-03-03T09:20:42;4.00;1.00
21849;DHT22;11089;49.852;19.700;2023-03-03T09:23:52;3.90;1.00
21849;DHT22;11089;49.852;19.700;2023-03-03T09:26:53;3.80;41.40
21849;DHT22;11089;49.852;19.700;2023-03-03T09:29:56;3.90;1.00
21849;DHT22;11089;49.852;19.700;2023-03-03T09:33:01;3.80;99.90
21849;DHT22;11089;49.852;19.700;2023-03-03T09:39:25;3.60;99.90
21849;DHT22;11089;49.852;19.700;2023-03-03T09:43:02;3.60;99.90
21849;DHT22;11089;49.852;19.700;2023-03-03T09:46:03;3.70;99.90
21849;DHT22;11089;49.852;19.700;2023-03-03T09:50:04;3.80;99.90
21849;DHT22;11089;49.852;19.700;2023-03-03T09:52:39;3.90;99.90
21849;DHT22;11089;49.852;19.700;2023-03-03T10:06:48;4.30;99.90
21849;DHT22;11089;49.852;19.700;2023-03-03T10:13:00;4.50;99.90
21849;DHT22;11089;49.852;19.700;2023-03-03T10:19:39;4.50;1.00
21849;DHT22;11089;49.852;19.700;2023-03-03T10:22:55;4.50;99.90
21849;DHT22;11089;49.852;19.700;2023-03-03T10:29:42;4.60;99.90
21849;DHT22;11089;49.852;19.700;2023-03-03T10:32:52;4.80;99.90
21849;DHT22;11089;49.852;19.700;2023-03-03T10:51:59;5.30;1.00
21849;DHT22;11089;49.852;19.700;2023-03-03T11:02:01;4.40;99.90
21849;DHT22;11089;49.852;19.700;2023-03-03T11:08:27;4.20;99.90
21849;DHT22;11089;49.852;19.700;2023-03-03T11:11:44;4.20;1.00
21849;DHT22;11089;49.852;19.700;2023-03-03T11:15:02;4.10;1.00
21849;DHT22;11089;49.852;19.700;2023-03-03T11:21:31;3.80;1.00
21849;DHT22;11089;49.852;19.700;2023-03-03T11:31:06;3.40;1.00
21849;DHT22;11089;49.852;19.700;2023-03-03T11:41:05;3.10;99.90
21849;DHT22;11089;49.852;19.700;2023-03-03T11:47:30;3.10;99.90
21849;DHT22;11089;49.852;19.700;2023-03-03T11:51:01;3.10;99.90
21849;DHT22;11089;49.852;19.700;2023-03-03T11:57:51;2.90;99.90
21849;DHT22;11089;49.852;19.700;2023-03-03T12:01:11;2.80;1.00
21849;DHT22;11089;49.852;19.700;2023-03-03T12:04:36;2.70;1.00
21849;DHT22;11089;49.852;19.700;2023-03-03T12:07:49;2.60;1.00
21849;DHT22;11089;49.852;19.700;2023-03-03T12:17:30;2.60;1.00
21849;DHT22;11089;49.852;19.700;2023-03-03T12:24:25;2.60;1.00
21849;DHT22;11089;49.852;19.700;2023-03-03T12:40:54;2.20;1.00
21849;DHT22;11089;49.852;19.700;2023-03-03T12:44:02;2.20;1.00
21849;DHT22;11089;49.852;19.700;2023-03-03T12:47:24;2.20;1.00
21849;DHT22;11089;49.852;19.700;2023-03-03T12:57:05;2.40;99.90
21849;DHT22;11089;49.852;19.700;2023-03-03T13:00:25;2.30;99.90
21849;DHT22;11089;49.852;19.700;2023-03-03T13:03:48;2.20;1.00
21849;DHT22;11089;49.852;19.700;2023-03-03T13:07:07;2.00;1.00
21849;DHT22;11089;49.852;19.700;2023-03-03T13:10:23;1.90;99.90
21849;DHT22;11089;49.852;19.700;2023-03-03T13:17:13;1.90;99.90
21849;DHT22;11089;49.852;19.700;2023-03-03T13:23:38;1.70;1.00
21849;DHT22;11089;49.852;19.700;2023-03-03T13:33:34;1.90;99.90
21849;DHT22;11089;49.852;19.700;2023-03-03T13:36:52;1.90;1.00
21849;DHT22;11089;49.852;19.700;2023-03-03T13:40:00;1.80;1.00
21849;DHT22;11089;49.852;19.700;2023-03-03T13:49:46;1.60;1.00
21849;DHT22;11089;49.852;19.700;2023-03-03T13:59:37;1.50;1.00
21849;DHT22;11089;49.852;19.700;2023-03-03T14:06:20;1.50;1.00
21849;DHT22;11089;49.852;19.700;2023-03-03T14:19:26;1.30;1.00
21849;DHT22;11089;49.852;19.700;2023-03-03T14:22:31;1.10;1.00
21849;DHT22;11089;49.852;19.700;2023-03-03T14:25:59;1.20;99.90
21849;DHT22;11089;49.852;19.700;2023-03-03T14:32:27;1.20;99.90
21849;DHT22;11089;49.852;19.700;2023-03-03T14:35:36;1.20;1.00
21849;DHT22;11089;49.852;19.700;2023-03-03T14:38:40;1.20;1.00
21849;DHT22;11089;49.852;19.700;2023-03-03T14:41:41;1.20;1.00
21849;DHT22;11089;49.852;19.700;2023-03-03T14:47:46;1.10;1.00
21849;DHT22;11089;49.852;19.700;2023-03-03T14:50:50;1.00;1.00
21849;DHT22;11089;49.852;19.700;2023-03-03T14:53:51;1.00;1.00
21849;DHT22;11089;49.852;19.700;2023-03-03T14:57:04;0.90;1.00
21849;DHT22;11089;49.852;19.700;2023-03-03T15:09:38;0.80;99.90
21849;DHT22;11089;49.852;19.700;2023-03-03T15:12:42;0.70;1.00
21849;DHT22;11089;49.852;19.700;2023-03-03T15:26:08;0.80;99.90
21849;DHT22;11089;49.852;19.700;2023-03-03T15:33:03;0.70;1.00
21849;DHT22;11089;49.852;19.700;2023-03-03T15:36:29;0.70;99.90
21849;DHT22;11089;49.852;19.700;2023-03-03T15:43:03;0.70;1.00
21849;DHT22;11089;49.852;19.700;2023-03-03T15:49:54;0.50;99.90
21849;DHT22;11089;49.852;19.700;2023-03-03T15:53:06;0.50;99.90
21849;DHT22;11089;49.852;19.700;2023-03-03T15:56:21;0.60;1.00
21849;DHT22;11089;49.852;19.700;2023-03-03T16:02:53;0.60;1.00
21849;DHT22;11089;49.852;19.700;2023-03-03T16:18:51;0.70;1.00
21849;DHT22;11089;49.852;19.700;2023-03-03T16:22:07;0.70;1.00
21849;DHT22;11089;49.852;19.700;2023-03-03T16:32:04;0.60;99.90
21849;DHT22;11089;49.852;19.700;2023-03-03T16:35:21;0.40;99.90
21849;DHT22;11089;49.852;19.700;2023-03-03T16:38:31;0.50;1.00
21849;DHT22;11089;49.852;19.700;2023-03-03T16:41:37;0.40;1.00
21849;DHT22;11089;49.852;19.700;2023-03-03T16:48:09;0.40;11.50
21849;DHT22;11089;49.852;19.700;2023-03-03T16:55:02;0.50;1.00
21849;DHT22;11089;49.852;19.700;2023-03-03T16:58:16;0.50;1.00
21849;DHT22;11089;49.852;19.700;2023-03-03T17:08:08;0.30;99.90
21849;DHT22;11089;49.852;19.700;2023-03-03T17:11:20;0.20;1.00
21849;DHT22;11089;49.852;19.700;2023-03-03T17:24:34;0.40;99.90
21849;DHT22;11089;49.852;19.700;2023-03-03T17:28:53;0.50;1.00
21849;DHT22;11089;49.852;19.700;2023-03-03T17:54:41;0.20;99.90
21849;DHT22;11089;49.852;19.700;2023-03-03T17:58:04;0.20;1.00
21849;DHT22;11089;49.852;19.700;2023-03-03T18:01:25;0.30;99.90
21849;DHT22;11089;49.852;19.700;2023-03-03T18:17:44;0.30;1.00
21849;DHT22;11089;49.852;19.700;2023-03-03T18:20:51;0.30;99.90
21849;DHT22;11089;49.852;19.700;2023-03-03T18:30:30;0.40;1.00
21849;DHT22;11089;49.852;19.700;2023-03-03T18:33:41;0.30;1.00
21849;DHT22;11089;49.852;19.700;2023-03-03T18:37:00;0.40;1.00
21849;DHT22;11089;49.852;19.700;2023-03-03T19:00:08;0.30;99.90
21849;DHT22;11089;49.852;19.700;2023-03-03T19:16:34;0.30;1.00
21849;DHT22;11089;49.852;19.700;2023-03-03T19:23:05;0.20;99.90
21849;DHT22;11089;49.852;19.700;2023-03-03T19:26:30;0.10;99.90
21849;DHT22;11089;49.852;19.700;2023-03-03T19:39:41;0.10;23.70
21849;DHT22;11089;49.852;19.700;2023-03-03T19:55:32;0.20;99.90
21849;DHT22;11089;49.852;19.700;2023-03-03T20:05:43;0.10;99.90
21849;DHT22;11089;49.852;19.700;2023-03-03T20:09:01;0.10;1.00
21849;DHT22;11089;49.852;19.700;2023-03-03T20:12:24;0.10;1.00
21849;DHT22;11089;49.852;19.700;2023-03-03T20:15:46;0.10;1.00
21849;DHT22;11089;49.852;19.700;2023-03-03T21:02:03;0.00;1.00
21849;DHT22;11089;49.852;19.700;2023-03-03T21:05:16;0.00;1.00
21849;DHT22;11089;49.852;19.700;2023-03-03T21:08:17;0.00;1.00
21849;DHT22;11089;49.852;19.700;2023-03-03T21:14:26;0.00;1.00
21849;DHT22;11089;49.852;19.700;2023-03-03T21:17:29;0.00;1.00
21849;DHT22;11089;49.852;19.700;2023-03-03T21:20:33;0.00;99.90
21849;DHT22;11089;49.852;19.700;2023-03-03T21:23:34;-0.10;1.00
21849;DHT22;11089;49.852;19.700;2023-03-03T21:26:50;0.00;99.90
21849;DHT22;11089;49.852;19.700;2023-03-03T21:30:09;0.00;1.00
21849;DHT22;11089;49.852;19.700;2023-03-03T21:36:47;-0.10;1.00
21849;DHT22;11089;49.852;19.700;2023-03-03T21:40:12;-0.10;99.90
21849;DHT22;11089;49.852;19.700;2023-03-03T21:43:35;0.00;1.00
21849;DHT22;11089;49.852;19.700;2023-03-03T21:46:36;-0.10;1.00
21849;DHT22;11089;49.852;19.700;2023-03-03T21:49:44;-0.10;99.90
21849;DHT22;11089;49.852;19.700;2023-03-03T21:52:46;-0.20;1.00
21849;DHT22;11089;49.852;19.700;2023-03-03T21:55:48;-0.10;99.90
21849;DHT22;11089;49.852;19.700;2023-03-03T21:58:49;-0.10;99.90
21849;DHT22;11089;49.852;19.700;2023-03-03T22:01:50;-0.10;1.00
21849;DHT22;11089;49.852;19.700;2023-03-03T22:04:51;-0.10;1.00
21849;DHT22;11089;49.852;19.700;2023-03-03T22:07:52;-0.10;21.30
21849;DHT22;11089;49.852;19.700;2023-03-03T22:10:54;-0.10;99.90
21849;DHT22;11089;49.852;19.700;2023-03-03T22:13:55;-0.20;1.00
21849;DHT22;11089;49.852;19.700;2023-03-03T22:16:56;-0.20;1.00
21849;DHT22;11089;49.852;19.700;2023-03-03T22:19:57;-0.20;56.10
21849;DHT22;11089;49.852;19.700;2023-03-03T22:22:58;-0.20;99.90
21849;DHT22;11089;49.852;19.700;2023-03-03T22:25:59;-0.20;1.00
21849;DHT22;11089;49.852;19.700;2023-03-03T22:29:02;-0.20;2.50
21849;DHT22;11089;49.852;19.700;2023-03-03T22:32:03;-0.20;99.90
21849;DHT22;11089;49.852;19.700;2023-03-03T22:35:04;-0.20;1.00
21849;DHT22;11089;49.852;19.700;2023-03-03T22:38:05;-0.20;1.00
21849;DHT22;11089;49.852;19.700;2023-03-03T22:41:07;-0.20;1.00
21849;DHT22;11089;49.852;19.700;2023-03-03T22:44:08;-0.20;1.00
21849;DHT22;11089;49.852;19.700;2023-03-03T22:47:09;-0.20;99.90
21849;DHT22;11089;49.852;19.700;2023-03-03T22:50:11;-0.20;1.00
21849;DHT22;11089;49.852;19.700;2023-03-03T22:53:12;-0.20;1.00
21849;DHT22;11089;49.852;19.700;2023-03-03T22:56:13;-0.20;1.00
21849;DHT22;11089;49.852;19.700;2023-03-03T22:59:14;-0.30;1.00
21849;DHT22;11089;49.852;19.700;2023-03-03T23:02:15;-0.30;1.00
21849;DHT22;11089;49.852;19.700;2023-03-03T23:05:16;-0.30;1.00
21849;DHT22;11089;49.852;19.700;2023-03-03T23:08:17;-0.40;45.50
21849;DHT22;11089;49.852;19.700;2023-03-03T23:11:18;-0.50;99.90
21849;DHT22;11089;49.852;19.700;2023-03-03T23:14:20;-0.60;1.00
21849;DHT22;11089;49.852;19.700;2023-03-03T23:17:21;-0.60;99.90
21849;DHT22;11089;49.852;19.700;2023-03-03T23:20:25;-0.60;1.00
21849;DHT22;11089;49.852;19.700;2023-03-03T23:23:26;-0.60;1.00
21849;DHT22;11089;49.852;19.700;2023-03-03T23:26:29;-0.60;99.90
21849;DHT22;11089;49.852;19.700;2023-03-03T23:29:30;-0.60;99.90
21849;DHT22;11089;49.852;19.700;2023-03-03T23:32:31;-0.50;99.90
21849;DHT22;11089;49.852;19.700;2023-03-03T23:35:32;-0.60;99.90
21849;DHT22;11089;49.852;19.700;2023-03-03T23:38:33;-0.50;99.90
21849;DHT22;11089;49.852;19.700;2023-03-03T23:41:34;-0.50;99.90
21849;DHT22;11089;49.852;19.700;2023-03-03T23:44:36;-0.50;1.00
21849;DHT22;11089;49.852;19.700;2023-03-03T23:47:40;-0.50;99.90
21849;DHT22;11089;49.852;19.700;2023-03-03T23:50:41;-0.60;99.90
21849;DHT22;11089;49.852;19.700;2023-03-03T23:53:42;-0.70;99.90
21849;DHT22;11089;49.852;19.700;2023-03-03T23:56:43;-0.70;99.90
21849;DHT22;11089;49.852;19.700;2023-03-03T23:59:44;-0.80;1.00
